sensor_id;sensor_type;location;lat;lon;timestamp;pressure;altitude;pressure_sealevel;temperature;humidity
51715;BME280;39115;59.332;18.034;2024-03-23T00:54:43;99238.50;;;8.23;65.69
51715;BME280;39115;59.332;18.034;2024-03-23T00:57:04;99245.78;;;8.21;65.63
51715;BME280;39115;59.332;18.034;2024-03-23T00:59:24;99249.59;;;8.19;65.62
51715;BME280;39115;59.332;18.034;2024-03-23T01:01:48;99245.44;;;8.16;65.55
51715;BME280;39115;59.332;18.034;2024-03-23T01:04:09;99246.41;;;8.15;65.66
51715;BME280;39115;59.332;18.034;2024-03-23T01:06:29;99252.88;;;8.13;65.78
51715;BME280;39115;59.332;18.034;2024-03-23T01:08:50;99247.72;;;8.11;65.88
51715;BME280;39115;59.332;18.034;2024-03-23T01:11:10;99244.38;;;8.09;65.71
51715;BME280;39115;59.332;18.034;2024-03-23T01:13:30;99241.91;;;8.07;65.54
51715;BME280;39115;59.332;18.034;2024-03-23T01:15:51;99251.66;;;8.07;65.63
51715;BME280;39115;59.332;18.034;2024-03-23T01:18:12;99250.16;;;8.04;65.71
51715;BME280;39115;59.332;18.034;2024-03-23T01:20:33;99249.47;;;8.02;65.50
51715;BME280;39115;59.332;18.034;2024-03-23T01:22:53;99244.34;;;8.01;65.75
51715;BME280;39115;59.332;18.034;2024-03-23T01:25:14;99246.28;;;7.99;65.72
51715;BME280;39115;59.332;18.034;2024-03-23T01:27:34;99247.28;;;7.98;65.63
51715;BME280;39115;59.332;18.034;2024-03-23T01:29:55;99247.44;;;7.96;65.45
51715;BME280;39115;59.332;18.034;2024-03-23T01:32:15;99240.63;;;7.94;65.50
51715;BME280;39115;59.332;18.034;2024-03-23T01:34:36;99246.91;;;7.93;65.67
51715;BME280;39115;59.332;18.034;2024-03-23T01:36:56;99240.94;;;7.90;65.52
51715;BME280;39115;59.332;18.034;2024-03-23T01:39:17;99241.09;;;7.89;65.95
51715;BME280;39115;59.332;18.034;2024-03-23T01:41:37;99250.19;;;7.86;65.47
51715;BME280;39115;59.332;18.034;2024-03-23T01:44:05;99240.56;;;7.85;65.48
51715;BME280;39115;59.332;18.034;2024-03-23T01:46:25;99240.06;;;7.82;65.72
51715;BME280;39115;59.332;18.034;2024-03-23T01:48:46;99249.81;;;7.81;65.47
51715;BME280;39115;59.332;18.034;2024-03-23T01:51:07;99245.63;;;7.79;65.63
51715;BME280;39115;59.332;18.034;2024-03-23T01:53:28;99240.66;;;7.75;65.35
51715;BME280;39115;59.332;18.034;2024-03-23T01:55:50;99244.28;;;7.74;65.49
51715;BME280;39115;59.332;18.034;2024-03-23T01:58:11;99247.25;;;7.71;65.73
51715;BME280;39115;59.332;18.034;2024-03-23T02:00:31;99250.88;;;7.70;65.51
51715;BME280;39115;59.332;18.034;2024-03-23T02:02:52;99250.22;;;7.68;65.42
51715;BME280;39115;59.332;18.034;2024-03-23T02:05:13;99247.69;;;7.67;65.65
51715;BME280;39115;59.332;18.034;2024-03-23T02:07:34;99248.84;;;7.64;65.43
51715;BME280;39115;59.332;18.034;2024-03-23T02:09:54;99251.66;;;7.63;65.30
51715;BME280;39115;59.332;18.034;2024-03-23T02:12:15;99242.19;;;7.60;65.54
51715;BME280;39115;59.332;18.034;2024-03-23T02:14:36;99248.47;;;7.59;65.28
51715;BME280;39115;59.332;18.034;2024-03-23T02:16:56;99240.69;;;7.57;65.74
51715;BME280;39115;59.332;18.034;2024-03-23T02:19:17;99236.50;;;7.55;65.58
51715;BME280;39115;59.332;18.034;2024-03-23T02:21:37;99250.75;;;7.54;65.34
51715;BME280;39115;59.332;18.034;2024-03-23T02:23:59;99244.94;;;7.50;65.69
51715;BME280;39115;59.332;18.034;2024-03-23T02:26:19;99244.09;;;7.50;65.40
51715;BME280;39115;59.332;18.034;2024-03-23T02:28:40;99252.19;;;7.48;65.39
51715;BME280;39115;59.332;18.034;2024-03-23T02:31:00;99240.91;;;7.46;65.48
51715;BME280;39115;59.332;18.034;2024-03-23T02:33:21;99241.88;;;7.45;65.50
51715;BME280;39115;59.332;18.034;2024-03-23T02:35:43;99244.00;;;7.41;65.50
51715;BME280;39115;59.332;18.034;2024-03-23T02:38:04;99245.84;;;7.41;65.77
51715;BME280;39115;59.332;18.034;2024-03-23T02:40:25;99239.03;;;7.38;65.59
51715;BME280;39115;59.332;18.034;2024-03-23T02:42:45;99245.31;;;7.37;65.38
51715;BME280;39115;59.332;18.034;2024-03-23T02:45:06;99246.28;;;7.36;65.01
51715;BME280;39115;59.332;18.034;2024-03-23T02:47:27;99242.13;;;7.34;65.56
51715;BME280;39115;59.332;18.034;2024-03-23T02:49:47;99246.72;;;7.32;65.26
51715;BME280;39115;59.332;18.034;2024-03-23T02:52:08;99240.75;;;7.30;65.60
51715;BME280;39115;59.332;18.034;2024-03-23T02:54:28;99240.06;;;7.27;65.23
51715;BME280;39115;59.332;18.034;2024-03-23T02:56:49;99245.50;;;7.26;65.42
51715;BME280;39115;59.332;18.034;2024-03-23T02:59:10;99240.38;;;7.24;65.72
51715;BME280;39115;59.332;18.034;2024-03-23T03:01:30;99241.50;;;7.22;65.59
51715;BME280;39115;59.332;18.034;2024-03-23T03:03:51;99243.31;;;7.21;65.24
51715;BME280;39115;59.332;18.034;2024-03-23T03:06:11;99248.75;;;7.20;65.72
51715;BME280;39115;59.332;18.034;2024-03-23T03:08:32;99246.28;;;7.18;65.52
51715;BME280;39115;59.332;18.034;2024-03-23T03:10:52;99241.25;;;7.15;65.53
51715;BME280;39115;59.332;18.034;2024-03-23T03:13:13;99236.94;;;7.14;65.20
51715;BME280;39115;59.332;18.034;2024-03-23T03:15:33;99231.81;;;7.12;65.20
51715;BME280;39115;59.332;18.034;2024-03-23T03:17:53;99239.06;;;7.10;65.67
51715;BME280;39115;59.332;18.034;2024-03-23T03:20:14;99241.00;;;7.08;65.69
51715;BME280;39115;59.332;18.034;2024-03-23T03:22:36;99241.19;;;7.07;65.49
51715;BME280;39115;59.332;18.034;2024-03-23T03:24:56;99241.34;;;7.05;65.56
51715;BME280;39115;59.332;18.034;2024-03-23T03:27:16;99245.13;;;7.03;65.27
51715;BME280;39115;59.332;18.034;2024-03-23T03:29:37;99243.44;;;7.02;65.42
51715;BME280;39115;59.332;18.034;2024-03-23T03:31:57;99249.88;;;6.99;65.50
51715;BME280;39115;59.332;18.034;2024-03-23T03:34:18;99243.88;;;6.97;65.87
51715;BME280;39115;59.332;18.034;2024-03-23T03:36:38;99249.34;;;6.95;65.39
51715;BME280;39115;59.332;18.034;2024-03-23T03:38:59;99247.66;;;6.94;65.72
51715;BME280;39115;59.332;18.034;2024-03-23T03:41:19;99253.09;;;6.93;65.41
51715;BME280;39115;59.332;18.034;2024-03-23T03:43:40;99260.34;;;6.91;65.75
51715;BME280;39115;59.332;18.034;2024-03-23T03:46:00;99253.53;;;6.88;65.14
51715;BME280;39115;59.332;18.034;2024-03-23T03:48:21;99252.84;;;6.86;65.58
51715;BME280;39115;59.332;18.034;2024-03-23T03:50:42;99256.47;;;6.85;65.37
51715;BME280;39115;59.332;18.034;2024-03-23T03:53:02;99245.22;;;6.83;65.62
51715;BME280;39115;59.332;18.034;2024-03-23T03:55:23;99245.38;;;6.82;65.47
51715;BME280;39115;59.332;18.034;2024-03-23T03:57:44;99249.13;;;6.79;65.69
51715;BME280;39115;59.332;18.034;2024-03-23T04:00:05;99246.63;;;6.77;65.48
51715;BME280;39115;59.332;18.034;2024-03-23T04:02:25;99249.41;;;6.76;65.65
51715;BME280;39115;59.332;18.034;2024-03-23T04:04:46;99246.94;;;6.74;65.49
51715;BME280;39115;59.332;18.034;2024-03-23T04:07:07;99241.09;;;6.71;65.39
51715;BME280;39115;59.332;18.034;2024-03-23T04:09:28;99242.06;;;6.70;65.16
51715;BME280;39115;59.332;18.034;2024-03-23T04:11:48;99250.16;;;6.68;65.62
51715;BME280;39115;59.332;18.034;2024-03-23T04:14:09;99246.81;;;6.66;65.59
51715;BME280;39115;59.332;18.034;2024-03-23T04:16:34;99245.16;;;6.65;65.39
51715;BME280;39115;59.332;18.034;2024-03-23T04:18:55;99254.22;;;6.62;65.37
51715;BME280;39115;59.332;18.034;2024-03-23T04:21:15;99257.03;;;6.61;65.62
51715;BME280;39115;59.332;18.034;2024-03-23T04:23:36;99249.22;;;6.59;65.21
51715;BME280;39115;59.332;18.034;2024-03-23T04:26:03;99250.34;;;6.57;65.29
51715;BME280;39115;59.332;18.034;2024-03-23T04:28:23;99247.84;;;6.55;65.53
51715;BME280;39115;59.332;18.034;2024-03-23T04:30:44;99247.97;;;6.54;65.47
51715;BME280;39115;59.332;18.034;2024-03-23T04:33:04;99240.19;;;6.52;65.24
51715;BME280;39115;59.332;18.034;2024-03-23T04:35:25;99237.84;;;6.49;65.28
51715;BME280;39115;59.332;18.034;2024-03-23T04:37:45;99249.41;;;6.48;65.61
51715;BME280;39115;59.332;18.034;2024-03-23T04:40:06;99252.19;;;6.46;65.47
51715;BME280;39115;59.332;18.034;2024-03-23T04:42:27;99246.22;;;6.44;65.56
51715;BME280;39115;59.332;18.034;2024-03-23T04:44:48;99252.47;;;6.43;65.56
51715;BME280;39115;59.332;18.034;2024-03-23T04:47:08;99246.50;;;6.41;65.36
51715;BME280;39115;59.332;18.034;2024-03-23T04:49:29;99257.22;;;6.40;65.00
51715;BME280;39115;59.332;18.034;2024-03-23T04:51:50;99260.16;;;6.37;64.96
51715;BME280;39115;59.332;18.034;2024-03-23T04:54:10;99252.38;;;6.35;65.17
51715;BME280;39115;59.332;18.034;2024-03-23T04:56:31;99251.53;;;6.35;65.47
51715;BME280;39115;59.332;18.034;2024-03-23T04:58:52;99254.31;;;6.33;65.25
51715;BME280;39115;59.332;18.034;2024-03-23T05:01:14;99259.75;;;6.31;65.54
51715;BME280;39115;59.332;18.034;2024-03-23T05:03:34;99256.41;;;6.29;65.70
51715;BME280;39115;59.332;18.034;2024-03-23T05:05:54;99261.69;;;6.29;65.39
51715;BME280;39115;59.332;18.034;2024-03-23T05:08:16;99255.72;;;6.27;65.00
51715;BME280;39115;59.332;18.034;2024-03-23T05:10:36;99260.34;;;6.25;65.67
51715;BME280;39115;59.332;18.034;2024-03-23T05:12:57;99258.66;;;6.24;65.36
51715;BME280;39115;59.332;18.034;2024-03-23T05:15:18;99257.00;;;6.23;65.78
51715;BME280;39115;59.332;18.034;2024-03-23T05:17:39;99265.06;;;6.22;65.11
51715;BME280;39115;59.332;18.034;2024-03-23T05:19:59;99266.88;;;6.21;65.42
51715;BME280;39115;59.332;18.034;2024-03-23T05:22:20;99263.53;;;6.19;65.56
51715;BME280;39115;59.332;18.034;2024-03-23T05:24:40;99261.03;;;6.17;65.14
51715;BME280;39115;59.332;18.034;2024-03-23T05:27:01;99257.69;;;6.15;65.00
51715;BME280;39115;59.332;18.034;2024-03-23T05:29:21;99260.47;;;6.14;65.33
51715;BME280;39115;59.332;18.034;2024-03-23T05:31:42;99255.19;;;6.14;65.27
51715;BME280;39115;59.332;18.034;2024-03-23T05:34:03;99257.16;;;6.12;65.11
51715;BME280;39115;59.332;18.034;2024-03-23T05:36:24;99257.28;;;6.10;65.19
51715;BME280;39115;59.332;18.034;2024-03-23T05:38:44;99253.84;;;6.10;65.26
51715;BME280;39115;59.332;18.034;2024-03-23T05:41:05;99252.97;;;6.09;65.45
51715;BME280;39115;59.332;18.034;2024-03-23T05:43:26;99253.13;;;6.08;65.36
51715;BME280;39115;59.332;18.034;2024-03-23T05:45:56;99254.09;;;6.07;65.29
51715;BME280;39115;59.332;18.034;2024-03-23T05:48:17;99250.75;;;6.05;65.38
51715;BME280;39115;59.332;18.034;2024-03-23T05:50:37;99248.28;;;6.03;65.61
51715;BME280;39115;59.332;18.034;2024-03-23T05:52:59;99249.25;;;6.02;64.93
51715;BME280;39115;59.332;18.034;2024-03-23T05:55:19;99254.69;;;6.00;65.42
51715;BME280;39115;59.332;18.034;2024-03-23T05:57:40;99248.66;;;5.98;65.25
51715;BME280;39115;59.332;18.034;2024-03-23T06:00:00;99257.56;;;5.97;65.67
51715;BME280;39115;59.332;18.034;2024-03-23T06:02:21;99250.59;;;5.96;64.99
51715;BME280;39115;59.332;18.034;2024-03-23T06:04:41;99253.41;;;5.95;65.00
51715;BME280;39115;59.332;18.034;2024-03-23T06:07:02;99252.56;;;5.94;65.07
51715;BME280;39115;59.332;18.034;2024-03-23T06:09:23;99252.56;;;5.94;65.55
51715;BME280;39115;59.332;18.034;2024-03-23T06:11:43;99255.50;;;5.91;65.03
51715;BME280;39115;59.332;18.034;2024-03-23T06:14:04;99265.22;;;5.91;65.10
51715;BME280;39115;59.332;18.034;2024-03-23T06:16:25;99264.38;;;5.90;65.30
51715;BME280;39115;59.332;18.034;2024-03-23T06:18:47;99265.34;;;5.89;64.97
51715;BME280;39115;59.332;18.034;2024-03-23T06:21:13;99267.03;;;5.90;64.95
51715;BME280;39115;59.332;18.034;2024-03-23T06:23:33;99262.84;;;5.88;64.83
51715;BME280;39115;59.332;18.034;2024-03-23T06:25:54;99265.50;;;5.88;64.96
51715;BME280;39115;59.332;18.034;2024-03-23T06:28:14;99262.84;;;5.88;65.15
51715;BME280;39115;59.332;18.034;2024-03-23T06:30:35;99263.84;;;5.86;65.50
51715;BME280;39115;59.332;18.034;2024-03-23T06:32:55;99263.97;;;5.85;65.18
51715;BME280;39115;59.332;18.034;2024-03-23T06:35:16;99266.63;;;5.85;65.09
51715;BME280;39115;59.332;18.034;2024-03-23T06:37:36;99271.75;;;5.86;65.47
51715;BME280;39115;59.332;18.034;2024-03-23T06:39:58;99268.28;;;5.86;65.48
51715;BME280;39115;59.332;18.034;2024-03-23T06:42:19;99273.56;;;5.86;65.40
51715;BME280;39115;59.332;18.034;2024-03-23T06:44:39;99285.78;;;5.87;65.27
51715;BME280;39115;59.332;18.034;2024-03-23T06:47:00;99281.34;;;5.88;65.50
51715;BME280;39115;59.332;18.034;2024-03-23T06:49:22;99272.56;;;5.87;65.41
51715;BME280;39115;59.332;18.034;2024-03-23T06:51:43;99279.53;;;5.88;64.92
51715;BME280;39115;59.332;18.034;2024-03-23T06:54:05;99284.81;;;5.88;64.82
51715;BME280;39115;59.332;18.034;2024-03-23T06:56:25;99283.84;;;5.89;64.98
51715;BME280;39115;59.332;18.034;2024-03-23T06:58:46;99285.66;;;5.89;65.35
51715;BME280;39115;59.332;18.034;2024-03-23T07:01:06;99287.19;;;5.91;64.80
51715;BME280;39115;59.332;18.034;2024-03-23T07:03:27;99288.00;;;5.92;65.27
51715;BME280;39115;59.332;18.034;2024-03-23T07:05:47;99288.84;;;5.92;64.74
51715;BME280;39115;59.332;18.034;2024-03-23T07:08:08;99287.03;;;5.93;64.94
51715;BME280;39115;59.332;18.034;2024-03-23T07:10:28;99291.34;;;5.94;65.21
51715;BME280;39115;59.332;18.034;2024-03-23T07:12:49;99289.56;;;5.94;65.23
51715;BME280;39115;59.332;18.034;2024-03-23T07:15:09;99292.19;;;5.94;65.24
51715;BME280;39115;59.332;18.034;2024-03-23T07:17:30;99291.19;;;5.95;64.99
51715;BME280;39115;59.332;18.034;2024-03-23T07:19:53;99295.50;;;5.96;64.88
51715;BME280;39115;59.332;18.034;2024-03-23T07:22:13;99298.28;;;5.95;64.64
51715;BME280;39115;59.332;18.034;2024-03-23T07:24:34;99290.22;;;5.96;64.72
51715;BME280;39115;59.332;18.034;2024-03-23T07:26:54;99293.72;;;5.97;64.64
51715;BME280;39115;59.332;18.034;2024-03-23T07:29:15;99289.25;;;5.97;65.08
51715;BME280;39115;59.332;18.034;2024-03-23T07:31:36;99295.38;;;5.98;64.83
51715;BME280;39115;59.332;18.034;2024-03-23T07:33:56;99300.66;;;5.98;65.21
51715;BME280;39115;59.332;18.034;2024-03-23T07:36:16;99291.91;;;5.97;65.08
51715;BME280;39115;59.332;18.034;2024-03-23T07:38:40;99285.66;;;5.98;65.29
51715;BME280;39115;59.332;18.034;2024-03-23T07:41:08;99288.28;;;5.98;65.19
51715;BME280;39115;59.332;18.034;2024-03-23T07:43:29;99285.66;;;5.98;64.71
51715;BME280;39115;59.332;18.034;2024-03-23T07:45:52;99285.53;;;6.00;64.88
51715;BME280;39115;59.332;18.034;2024-03-23T07:48:13;99275.94;;;5.99;64.86
51715;BME280;39115;59.332;18.034;2024-03-23T07:50:33;99282.88;;;6.00;64.51
51715;BME280;39115;59.332;18.034;2024-03-23T07:52:54;99279.41;;;5.99;65.20
51715;BME280;39115;59.332;18.034;2024-03-23T07:55:14;99281.09;;;6.00;65.11
51715;BME280;39115;59.332;18.034;2024-03-23T07:57:35;99284.56;;;6.01;64.88
51715;BME280;39115;59.332;18.034;2024-03-23T07:59:55;99281.91;;;6.01;64.71
51715;BME280;39115;59.332;18.034;2024-03-23T08:02:15;99281.78;;;6.03;65.02
51715;BME280;39115;59.332;18.034;2024-03-23T08:04:36;99280.94;;;6.02;65.11
51715;BME280;39115;59.332;18.034;2024-03-23T08:06:56;99277.31;;;6.03;64.92
51715;BME280;39115;59.332;18.034;2024-03-23T08:09:17;99272.88;;;6.04;65.01
51715;BME280;39115;59.332;18.034;2024-03-23T08:11:38;99273.72;;;6.04;65.04
51715;BME280;39115;59.332;18.034;2024-03-23T08:13:59;99275.25;;;6.07;64.76
51715;BME280;39115;59.332;18.034;2024-03-23T08:16:20;99280.53;;;6.07;64.57
51715;BME280;39115;59.332;18.034;2024-03-23T08:18:41;99275.25;;;6.07;64.57
51715;BME280;39115;59.332;18.034;2024-03-23T08:21:04;99278.56;;;6.09;65.00
51715;BME280;39115;59.332;18.034;2024-03-23T08:23:25;99273.28;;;6.09;64.55
51715;BME280;39115;59.332;18.034;2024-03-23T08:25:46;99275.78;;;6.10;64.99
51715;BME280;39115;59.332;18.034;2024-03-23T08:28:06;99280.09;;;6.11;65.04
51715;BME280;39115;59.332;18.034;2024-03-23T08:30:28;99269.53;;;6.11;64.80
51715;BME280;39115;59.332;18.034;2024-03-23T08:32:48;99278.16;;;6.13;64.59
51715;BME280;39115;59.332;18.034;2024-03-23T08:35:09;99276.19;;;6.15;64.69
51715;BME280;39115;59.332;18.034;2024-03-23T08:37:29;99275.22;;;6.16;65.07
51715;BME280;39115;59.332;18.034;2024-03-23T08:39:50;99270.78;;;6.17;64.75
51715;BME280;39115;59.332;18.034;2024-03-23T08:42:11;99274.09;;;6.19;64.92
51715;BME280;39115;59.332;18.034;2024-03-23T08:44:31;99271.44;;;6.19;64.79
51715;BME280;39115;59.332;18.034;2024-03-23T08:46:55;99276.63;;;6.21;64.97
51715;BME280;39115;59.332;18.034;2024-03-23T08:49:16;99277.28;;;6.23;64.44
51715;BME280;39115;59.332;18.034;2024-03-23T08:51:36;99272.84;;;6.23;65.07
51715;BME280;39115;59.332;18.034;2024-03-23T08:53:57;99275.50;;;6.23;64.38
51715;BME280;39115;59.332;18.034;2024-03-23T08:56:17;99275.19;;;6.26;64.35
51715;BME280;39115;59.332;18.034;2024-03-23T08:58:38;99275.19;;;6.26;64.51
51715;BME280;39115;59.332;18.034;2024-03-23T09:01:04;99272.41;;;6.28;64.87
51715;BME280;39115;59.332;18.034;2024-03-23T09:03:25;99272.28;;;6.29;64.82
51715;BME280;39115;59.332;18.034;2024-03-23T09:05:45;99272.41;;;6.28;64.67
51715;BME280;39115;59.332;18.034;2024-03-23T09:08:06;99269.63;;;6.29;64.40
51715;BME280;39115;59.332;18.034;2024-03-23T09:10:27;99272.13;;;6.31;64.61
51715;BME280;39115;59.332;18.034;2024-03-23T09:12:47;99264.06;;;6.32;64.48
51715;BME280;39115;59.332;18.034;2024-03-23T09:15:08;99268.38;;;6.33;64.69
51715;BME280;39115;59.332;18.034;2024-03-23T09:17:28;99271.69;;;6.36;64.52
51715;BME280;39115;59.332;18.034;2024-03-23T09:19:49;99274.22;;;6.37;64.49
51715;BME280;39115;59.332;18.034;2024-03-23T09:22:09;99271.41;;;6.39;64.86
51715;BME280;39115;59.332;18.034;2024-03-23T09:24:30;99264.31;;;6.39;64.41
51715;BME280;39115;59.332;18.034;2024-03-23T09:26:51;99263.34;;;6.40;64.91
51715;BME280;39115;59.332;18.034;2024-03-23T09:29:12;99260.28;;;6.35;64.50
51715;BME280;39115;59.332;18.034;2024-03-23T09:31:33;99269.16;;;6.44;64.43
51715;BME280;39115;59.332;18.034;2024-03-23T09:33:53;99270.84;;;6.45;65.01
51715;BME280;39115;59.332;18.034;2024-03-23T09:36:14;99270.69;;;6.46;64.37
51715;BME280;39115;59.332;18.034;2024-03-23T09:38:34;99266.25;;;6.47;64.94
51715;BME280;39115;59.332;18.034;2024-03-23T09:40:55;99264.28;;;6.49;64.63
51715;BME280;39115;59.332;18.034;2024-03-23T09:43:16;99273.75;;;6.52;64.40
51715;BME280;39115;59.332;18.034;2024-03-23T09:45:40;99270.94;;;6.53;64.71
51715;BME280;39115;59.332;18.034;2024-03-23T09:48:01;99266.47;;;6.54;64.83
51715;BME280;39115;59.332;18.034;2024-03-23T09:50:22;99268.84;;;6.57;64.53
51715;BME280;39115;59.332;18.034;2024-03-23T09:52:43;99266.03;;;6.58;64.71
51715;BME280;39115;59.332;18.034;2024-03-23T09:55:06;99269.53;;;6.59;64.68
51715;BME280;39115;59.332;18.034;2024-03-23T09:57:26;99271.06;;;6.61;64.51
51715;BME280;39115;59.332;18.034;2024-03-23T09:59:47;99265.63;;;6.63;64.44
51715;BME280;39115;59.332;18.034;2024-03-23T10:02:07;99262.84;;;6.64;64.77
51715;BME280;39115;59.332;18.034;2024-03-23T10:04:38;99261.56;;;6.69;64.68
51715;BME280;39115;59.332;18.034;2024-03-23T10:07:10;99258.75;;;6.70;64.82
51715;BME280;39115;59.332;18.034;2024-03-23T10:09:31;99259.63;;;6.71;64.33
51715;BME280;39115;59.332;18.034;2024-03-23T10:11:52;99254.16;;;6.72;64.53
51715;BME280;39115;59.332;18.034;2024-03-23T10:14:29;99252.91;;;6.76;64.55
51715;BME280;39115;59.332;18.034;2024-03-23T10:16:50;99253.72;;;6.77;64.67
51715;BME280;39115;59.332;18.034;2024-03-23T10:19:12;99254.44;;;6.79;64.38
51715;BME280;39115;59.332;18.034;2024-03-23T10:21:32;99246.34;;;6.80;64.24
51715;BME280;39115;59.332;18.034;2024-03-23T10:23:53;99251.34;;;6.84;64.43
51715;BME280;39115;59.332;18.034;2024-03-23T10:31:21;99249.78;;;6.91;64.53
51715;BME280;39115;59.332;18.034;2024-03-23T10:33:48;99247.66;;;6.94;64.38
51715;BME280;39115;59.332;18.034;2024-03-23T10:36:09;99245.84;;;6.95;64.51
51715;BME280;39115;59.332;18.034;2024-03-23T10:38:29;99242.06;;;6.97;64.59
51715;BME280;39115;59.332;18.034;2024-03-23T10:40:51;99245.41;;;7.00;64.45
51715;BME280;39115;59.332;18.034;2024-03-23T10:43:12;99246.75;;;7.04;64.28
51715;BME280;39115;59.332;18.034;2024-03-23T10:45:32;99244.78;;;7.06;64.60
51715;BME280;39115;59.332;18.034;2024-03-23T10:47:53;99236.56;;;7.09;64.42
51715;BME280;39115;59.332;18.034;2024-03-23T10:50:13;99245.22;;;7.11;64.28
51715;BME280;39115;59.332;18.034;2024-03-23T10:52:34;99249.38;;;7.14;64.37
51715;BME280;39115;59.332;18.034;2024-03-23T10:54:55;99241.09;;;7.17;64.33
51715;BME280;39115;59.332;18.034;2024-03-23T10:57:21;99239.97;;;7.19;64.44
51715;BME280;39115;59.332;18.034;2024-03-23T10:59:44;99242.31;;;7.22;64.41
51715;BME280;39115;59.332;18.034;2024-03-23T11:02:05;99243.84;;;7.25;64.32
51715;BME280;39115;59.332;18.034;2024-03-23T11:04:38;99240.06;;;7.27;64.63
51715;BME280;39115;59.332;18.034;2024-03-23T11:06:59;99243.22;;;7.31;64.33
51715;BME280;39115;59.332;18.034;2024-03-23T11:11:55;99227.75;;;7.36;64.51
51715;BME280;39115;59.332;18.034;2024-03-23T11:14:24;99232.59;;;7.41;64.32
51715;BME280;39115;59.332;18.034;2024-03-23T11:16:45;99238.72;;;7.41;64.38
51715;BME280;39115;59.332;18.034;2024-03-23T11:19:34;99232.81;;;7.48;64.29
51715;BME280;39115;59.332;18.034;2024-03-23T11:21:56;99233.50;;;7.50;64.52
51715;BME280;39115;59.332;18.034;2024-03-23T11:24:17;99237.66;;;7.52;64.25
51715;BME280;39115;59.332;18.034;2024-03-23T11:26:38;99234.53;;;7.57;64.49
51715;BME280;39115;59.332;18.034;2024-03-23T11:29:12;99236.91;;;7.60;64.47
51715;BME280;39115;59.332;18.034;2024-03-23T11:31:33;99227.81;;;7.63;64.45
51715;BME280;39115;59.332;18.034;2024-03-23T11:34:03;99231.00;;;7.66;64.39
51715;BME280;39115;59.332;18.034;2024-03-23T11:36:24;99234.31;;;7.68;64.34
51715;BME280;39115;59.332;18.034;2024-03-23T11:38:44;99229.38;;;7.73;64.46
51715;BME280;39115;59.332;18.034;2024-03-23T11:41:05;99217.66;;;7.76;64.43
51715;BME280;39115;59.332;18.034;2024-03-23T11:43:26;99230.59;;;7.79;64.55
51715;BME280;39115;59.332;18.034;2024-03-23T11:45:51;99231.94;;;7.83;64.60
51715;BME280;39115;59.332;18.034;2024-03-23T11:48:17;99229.00;;;7.86;64.70
51715;BME280;39115;59.332;18.034;2024-03-23T11:50:40;99233.97;;;7.89;64.32
51715;BME280;39115;59.332;18.034;2024-03-23T11:55:51;99225.09;;;7.99;64.46
51715;BME280;39115;59.332;18.034;2024-03-23T11:58:12;99230.25;;;8.00;64.39
51715;BME280;39115;59.332;18.034;2024-03-23T12:00:34;99231.59;;;8.04;64.36
51715;BME280;39115;59.332;18.034;2024-03-23T12:03:00;99229.47;;;8.08;64.32
51715;BME280;39115;59.332;18.034;2024-03-23T12:05:21;99233.63;;;8.11;64.74
51715;BME280;39115;59.332;18.034;2024-03-23T12:07:42;99228.03;;;8.14;64.41
51715;BME280;39115;59.332;18.034;2024-03-23T12:10:04;99227.56;;;8.18;64.45
51715;BME280;39115;59.332;18.034;2024-03-23T12:12:24;99232.53;;;8.21;64.62
51715;BME280;39115;59.332;18.034;2024-03-23T12:15:04;99231.25;;;8.26;64.47
51715;BME280;39115;59.332;18.034;2024-03-23T12:17:26;99231.94;;;8.28;64.45
51715;BME280;39115;59.332;18.034;2024-03-23T12:19:46;99236.72;;;8.32;64.29
51715;BME280;39115;59.332;18.034;2024-03-23T12:22:07;99231.13;;;8.35;64.48
51715;BME280;39115;59.332;18.034;2024-03-23T12:24:28;99226.34;;;8.39;64.13
51715;BME280;39115;59.332;18.034;2024-03-23T12:26:49;99232.16;;;8.43;64.46
51715;BME280;39115;59.332;18.034;2024-03-23T12:29:10;99220.41;;;8.45;64.31
51715;BME280;39115;59.332;18.034;2024-03-23T12:31:31;99216.63;;;8.48;64.28
51715;BME280;39115;59.332;18.034;2024-03-23T12:33:51;99223.28;;;8.52;64.23
51715;BME280;39115;59.332;18.034;2024-03-23T12:36:12;99215.03;;;8.55;64.10
51715;BME280;39115;59.332;18.034;2024-03-23T12:38:32;99207.59;;;8.59;64.53
51715;BME280;39115;59.332;18.034;2024-03-23T12:40:53;99207.25;;;8.62;64.12
51715;BME280;39115;59.332;18.034;2024-03-23T12:43:14;99207.94;;;8.64;64.59
51715;BME280;39115;59.332;18.034;2024-03-23T12:45:34;99200.47;;;8.67;64.40
51715;BME280;39115;59.332;18.034;2024-03-23T12:47:55;99200.16;;;8.70;64.32
51715;BME280;39115;59.332;18.034;2024-03-23T12:50:15;99197.19;;;8.74;64.58
51715;BME280;39115;59.332;18.034;2024-03-23T12:52:36;99202.19;;;8.77;64.57
51715;BME280;39115;59.332;18.034;2024-03-23T12:54:57;99201.84;;;8.80;64.55
51715;BME280;39115;59.332;18.034;2024-03-23T12:57:17;99213.81;;;8.84;64.74
51715;BME280;39115;59.332;18.034;2024-03-23T12:59:38;99203.88;;;8.86;64.18
51715;BME280;39115;59.332;18.034;2024-03-23T13:01:58;99207.03;;;8.90;64.90
51715;BME280;39115;59.332;18.034;2024-03-23T13:04:19;99211.19;;;8.92;64.25
51715;BME280;39115;59.332;18.034;2024-03-23T13:06:39;99203.03;;;8.94;64.83
51715;BME280;39115;59.332;18.034;2024-03-23T13:09:01;99195.59;;;8.97;64.10
51715;BME280;39115;59.332;18.034;2024-03-23T13:11:21;99203.25;;;9.00;64.73
51715;BME280;39115;59.332;18.034;2024-03-23T13:13:42;99203.88;;;9.02;64.59
51715;BME280;39115;59.332;18.034;2024-03-23T13:16:03;99201.75;;;9.06;64.43
51715;BME280;39115;59.332;18.034;2024-03-23T13:18:24;99199.94;;;9.07;64.62
51715;BME280;39115;59.332;18.034;2024-03-23T13:20:44;99203.91;;;9.11;64.35
51715;BME280;39115;59.332;18.034;2024-03-23T13:23:04;99205.44;;;9.13;64.26
51715;BME280;39115;59.332;18.034;2024-03-23T13:25:25;99212.22;;;9.16;64.45
51715;BME280;39115;59.332;18.034;2024-03-23T13:27:45;99216.38;;;9.18;64.42
51715;BME280;39115;59.332;18.034;2024-03-23T13:30:06;99216.03;;;9.22;64.97
51715;BME280;39115;59.332;18.034;2024-03-23T13:32:27;99215.91;;;9.23;65.09